createdAt,value
2023-01-11T00:00:56.932Z,80.44
2023-01-11T00:03:59.363Z,80.05
2023-01-11T00:07:01.700Z,79.42
2023-01-11T00:10:04.955Z,79.66
2023-01-11T00:13:07.616Z,81.18
2023-01-11T00:16:10.278Z,82.00
2023-01-11T00:19:12.913Z,82.43
2023-01-11T00:22:15.176Z,83.20
2023-01-11T00:25:18.828Z,83.28
2023-01-11T00:28:21.045Z,83.39
2023-01-11T00:31:23.519Z,83.57
2023-01-11T00:34:25.962Z,83.73
2023-01-11T00:37:28.169Z,83.69
2023-01-11T00:40:30.589Z,83.71
2023-01-11T00:43:51.021Z,83.47
2023-01-11T00:47:13.402Z,83.75
2023-01-11T00:50:15.762Z,83.89
2023-01-11T00:53:19.421Z,84.04
2023-01-11T00:56:21.828Z,83.68
2023-01-11T00:59:24.045Z,83.82
2023-01-11T01:02:27.493Z,83.51
2023-01-11T01:05:29.787Z,83.19
2023-01-11T01:08:31.994Z,83.09
2023-01-11T01:11:34.160Z,82.65
2023-01-11T01:14:37.029Z,82.70
2023-01-11T01:17:39.349Z,83.11
2023-01-11T01:20:41.568Z,82.87
2023-01-11T01:23:43.897Z,82.41
2023-01-11T01:26:46.654Z,82.14
2023-01-11T01:29:48.870Z,81.94
2023-01-11T01:32:51.166Z,82.03
2023-01-11T01:35:53.438Z,81.82
2023-01-11T01:38:55.742Z,81.78
2023-01-11T01:41:58.692Z,81.33
2023-01-11T01:45:24.775Z,81.63
2023-01-11T01:48:28.197Z,81.19
2023-01-11T01:51:41.640Z,80.59
2023-01-11T01:54:46.600Z,80.68
2023-01-11T01:57:50.967Z,80.85
2023-01-11T02:00:53.761Z,80.52
2023-01-11T02:03:56.108Z,80.65
2023-01-11T02:07:03.618Z,80.57
2023-01-11T02:10:21.333Z,80.46
2023-01-11T02:13:24.927Z,80.08
2023-01-11T02:16:27.216Z,79.92
2023-01-11T02:19:57.738Z,80.20
2023-01-11T02:23:14.955Z,79.64
2023-01-11T02:26:29.022Z,80.06
2023-01-11T02:29:37.075Z,80.01
2023-01-11T02:32:53.040Z,79.97
2023-01-11T02:36:16.821Z,80.42
2023-01-11T02:39:48.884Z,80.56
2023-01-11T02:43:24.010Z,81.60
2023-01-11T02:46:44.574Z,81.64
2023-01-11T02:50:08.240Z,82.02
2023-01-11T02:53:23.745Z,82.61
2023-01-11T02:56:29.517Z,82.49
2023-01-11T02:59:34.944Z,82.76
2023-01-11T03:02:37.180Z,83.63
2023-01-11T03:05:57.455Z,83.78
2023-01-11T03:09:27.041Z,83.78
2023-01-11T03:12:51.864Z,84.52
2023-01-11T03:15:56.785Z,84.58
2023-01-11T03:18:58.961Z,85.06
2023-01-11T03:22:12.121Z,85.41
2023-01-11T03:25:22.313Z,86.15
2023-01-11T03:28:39.796Z,85.99
2023-01-11T03:31:50.159Z,86.47
2023-01-11T03:35:26.023Z,87.58
2023-01-11T03:38:37.181Z,87.20
2023-01-11T03:41:41.921Z,88.64
2023-01-11T03:44:48.903Z,88.33
2023-01-11T03:47:53.778Z,88.19
2023-01-11T03:50:58.742Z,88.12
2023-01-11T03:54:04.494Z,88.58
2023-01-11T03:57:06.659Z,88.79
2023-01-11T04:00:10.115Z,88.27
2023-01-11T04:03:12.885Z,88.47
2023-01-11T04:06:15.316Z,88.43
2023-01-11T04:09:17.676Z,88.25
2023-01-11T04:12:20.081Z,88.49
2023-01-11T04:15:22.775Z,88.21
2023-01-11T04:18:26.114Z,87.38
2023-01-11T04:21:29.083Z,87.06
2023-01-11T04:24:31.298Z,87.79
2023-01-11T04:27:33.495Z,88.15
2023-01-11T04:30:36.104Z,87.87
2023-01-11T04:33:38.935Z,87.82
2023-01-11T04:36:42.108Z,87.98
2023-01-11T04:39:44.309Z,87.82
2023-01-11T04:42:46.936Z,87.51
2023-01-11T04:45:49.634Z,87.53
2023-01-11T04:48:52.325Z,87.33
2023-01-11T04:51:54.572Z,87.46
2023-01-11T04:54:57.846Z,87.36
2023-01-11T04:58:00.071Z,87.87
2023-01-11T05:01:12.152Z,87.81
2023-01-11T05:04:14.489Z,88.07
2023-01-11T05:07:16.884Z,87.98
2023-01-11T05:10:21.050Z,87.64
2023-01-11T05:13:42.966Z,87.85
2023-01-11T05:16:45.420Z,87.90
2023-01-11T05:19:47.728Z,88.02
2023-01-11T05:22:50.131Z,88.29
2023-01-11T05:25:52.385Z,87.88
2023-01-11T05:28:56.817Z,87.60
2023-01-11T05:31:59.161Z,87.82
2023-01-11T05:35:01.516Z,87.58
2023-01-11T05:38:03.779Z,87.98
2023-01-11T05:41:08.449Z,88.24
2023-01-11T05:44:32.276Z,88.58
2023-01-11T05:47:34.638Z,88.46
2023-01-11T05:50:37.093Z,88.80
2023-01-11T05:53:39.412Z,88.75
2023-01-11T05:56:45.097Z,88.72
2023-01-11T05:59:47.439Z,88.52
2023-01-11T06:02:49.843Z,89.13
2023-01-11T06:05:54.505Z,88.83
2023-01-11T06:08:57.990Z,89.69
2023-01-11T06:12:00.387Z,89.80
2023-01-11T06:15:02.718Z,89.41
2023-01-11T06:18:04.968Z,89.10
2023-01-11T06:21:07.927Z,88.83
2023-01-11T06:24:10.371Z,88.91
2023-01-11T06:27:12.655Z,88.89
2023-01-11T06:30:15.148Z,88.62
2023-01-11T06:33:17.559Z,89.36
2023-01-11T06:36:20.139Z,89.19
2023-01-11T06:39:22.414Z,89.15
2023-01-11T06:42:24.629Z,88.28
2023-01-11T06:45:27.191Z,88.35
2023-01-11T06:48:29.556Z,88.56
2023-01-11T06:51:31.930Z,88.80
2023-01-11T06:54:34.242Z,88.44
2023-01-11T06:57:37.115Z,88.32
2023-01-11T07:00:40.327Z,88.13
2023-01-11T07:03:45.723Z,87.91
2023-01-11T07:06:49.091Z,88.16
2023-01-11T07:09:54.174Z,87.77
2023-01-11T07:12:57.528Z,87.08
2023-01-11T07:16:02.287Z,87.33
2023-01-11T07:19:05.287Z,86.11
2023-01-11T07:22:08.975Z,85.51
2023-01-11T07:25:12.271Z,84.83
2023-01-11T07:28:14.736Z,83.87
2023-01-11T07:31:17.100Z,81.84
2023-01-11T07:34:19.546Z,79.04
2023-01-11T07:37:29.316Z,75.18
2023-01-11T07:40:31.868Z,71.62
2023-01-11T07:43:34.127Z,68.49
2023-01-11T07:46:37.414Z,66.76
2023-01-11T07:49:39.746Z,66.03
2023-01-11T07:52:50.731Z,64.32
2023-01-11T07:55:55.516Z,62.99
2023-01-11T07:58:57.891Z,62.09
2023-01-11T08:02:00.277Z,60.93
2023-01-11T08:05:03.420Z,60.39
2023-01-11T08:08:07.675Z,62.01
2023-01-11T08:11:30.005Z,63.94
2023-01-11T08:14:57.367Z,65.40
2023-01-11T08:18:00.648Z,62.97
2023-01-11T08:21:03.182Z,66.28
2023-01-11T08:24:05.789Z,68.96
2023-01-11T08:27:08.259Z,71.31
2023-01-11T08:30:12.149Z,73.33
2023-01-11T08:33:14.623Z,73.83
2023-01-11T08:36:17.041Z,74.42
2023-01-11T08:39:20.978Z,75.61
2023-01-11T08:42:23.463Z,76.24
2023-01-11T08:45:26.529Z,75.60
2023-01-11T08:48:28.881Z,75.19
2023-01-11T08:51:32.378Z,76.49
2023-01-11T08:54:35.939Z,76.32
2023-01-11T08:57:38.291Z,76.67
2023-01-11T09:00:41.814Z,77.13
2023-01-11T09:03:44.116Z,76.41
2023-01-11T09:06:47.281Z,75.40
2023-01-11T09:09:50.802Z,74.94
2023-01-11T09:12:54.607Z,74.19
2023-01-11T09:15:58.037Z,72.91
2023-01-11T09:19:00.338Z,69.58
2023-01-11T09:22:03.362Z,65.01
2023-01-11T09:25:06.434Z,59.47
2023-01-11T09:28:08.689Z,55.05
2023-01-11T09:31:11.067Z,51.74
2023-01-11T09:34:13.912Z,50.54
2023-01-11T09:37:19.163Z,49.12
2023-01-11T09:40:52.030Z,48.09
2023-01-11T09:44:16.420Z,46.63
2023-01-11T09:47:44.248Z,45.85
2023-01-11T09:50:49.468Z,44.08
2023-01-11T09:53:54.152Z,43.85
2023-01-11T09:57:38.272Z,42.10
2023-01-11T10:01:01.487Z,41.42
2023-01-11T10:04:37.257Z,40.15
2023-01-11T10:18:33.477Z,40.15
2023-01-11T10:22:31.754Z,40.05
2023-01-11T10:25:51.457Z,39.80
2023-01-11T10:29:23.742Z,39.74
2023-01-11T10:32:48.159Z,39.51
2023-01-11T10:36:16.412Z,38.17
2023-01-11T10:39:51.316Z,38.82
2023-01-11T10:43:20.751Z,37.37
2023-01-11T10:46:26.343Z,36.57
2023-01-11T10:49:51.551Z,36.42
2023-01-11T10:53:24.995Z,36.03
2023-01-11T10:57:02.536Z,35.23
2023-01-11T11:00:24.816Z,34.53
2023-01-11T11:04:08.193Z,34.95
2023-01-11T11:07:22.534Z,34.77
2023-01-11T11:10:36.835Z,35.83
2023-01-11T11:14:06.968Z,37.07
2023-01-11T11:17:27.967Z,37.42
2023-01-11T11:20:33.359Z,34.61
2023-01-11T11:23:39.657Z,34.36
2023-01-11T11:26:52.098Z,34.88
2023-01-11T11:29:57.346Z,36.66
2023-01-11T11:33:25.533Z,37.45
2023-01-11T11:36:41.532Z,39.13
2023-01-11T11:39:43.920Z,39.54
2023-01-11T11:42:46.372Z,41.67
2023-01-11T11:45:59.927Z,44.95
2023-01-11T11:49:18.272Z,47.03
2023-01-11T11:52:20.880Z,47.96
2023-01-11T11:55:30.920Z,49.84
2023-01-11T11:58:33.874Z,51.87
2023-01-11T12:01:40.157Z,53.11
2023-01-11T12:04:48.539Z,54.79
2023-01-11T12:07:55.876Z,54.29
2023-01-11T12:11:05.700Z,54.73
2023-01-11T12:14:11.004Z,54.80
2023-01-11T12:17:24.276Z,55.05
2023-01-11T12:20:30.995Z,55.05
2023-01-11T12:23:33.986Z,56.14
2023-01-11T12:26:51.619Z,55.99
2023-01-11T12:30:12.836Z,56.07
2023-01-11T12:33:49.722Z,54.73
2023-01-11T12:37:37.015Z,55.57
2023-01-11T12:40:54.664Z,55.49
2023-01-11T12:44:17.932Z,55.43
2023-01-11T12:47:35.440Z,55.47
2023-01-11T12:53:59.604Z,55.23
2023-01-11T12:57:41.960Z,54.79
2023-01-11T13:01:17.764Z,55.41
2023-01-11T13:04:41.338Z,53.58
2023-01-11T13:08:08.285Z,55.30
2023-01-11T13:11:48.102Z,55.40
2023-01-11T13:15:24.157Z,55.58
2023-01-11T13:18:59.905Z,55.84
2023-01-11T13:22:05.474Z,56.10
2023-01-11T13:25:38.792Z,58.01
2023-01-11T13:28:45.548Z,58.56
2023-01-11T13:31:50.325Z,58.47
2023-01-11T13:35:19.376Z,58.57
2023-01-11T13:38:34.688Z,58.75
2023-01-11T13:41:58.303Z,59.46
2023-01-11T13:45:19.260Z,59.78
2023-01-11T13:48:33.778Z,60.41
2023-01-11T13:51:57.749Z,59.95
2023-01-11T13:55:14.293Z,60.96
2023-01-11T13:58:28.983Z,61.27
2023-01-11T14:01:55.406Z,61.58
2023-01-11T14:05:21.496Z,62.51
2023-01-11T14:08:51.667Z,62.85
2023-01-11T14:12:05.959Z,63.13
2023-01-11T14:15:23.258Z,63.75
2023-01-11T14:18:37.105Z,63.80
2023-01-11T14:21:57.996Z,64.50
2023-01-11T14:25:32.709Z,65.21
2023-01-11T14:28:46.849Z,66.32
2023-01-11T14:32:11.019Z,66.74
2023-01-11T14:35:45.601Z,67.17
2023-01-11T14:39:19.536Z,68.06
2023-01-11T14:42:34.979Z,67.64
2023-01-11T14:46:15.550Z,68.09
2023-01-11T14:49:44.177Z,68.70
2023-01-11T14:52:48.158Z,70.01
2023-01-11T14:55:51.785Z,70.28
2023-01-11T14:59:06.399Z,70.51
2023-01-11T15:02:16.414Z,70.72
2023-01-11T15:05:45.691Z,71.25
2023-01-11T15:08:54.447Z,71.80
2023-01-11T15:12:12.003Z,72.71
2023-01-11T15:15:14.287Z,72.25
2023-01-11T15:18:22.999Z,72.83
2023-01-11T15:21:27.302Z,73.22
2023-01-11T15:24:32.360Z,74.01
2023-01-11T15:27:37.322Z,74.09
2023-01-11T15:30:39.709Z,74.99
2023-01-11T15:33:48.139Z,75.24
2023-01-11T15:37:03.482Z,75.00
2023-01-11T15:40:19.048Z,75.76
2023-01-11T15:44:07.526Z,76.19
2023-01-11T15:47:15.541Z,75.71
2023-01-11T15:50:35.774Z,76.02
2023-01-11T15:53:38.041Z,76.79
2023-01-11T15:56:58.709Z,77.40
2023-01-11T16:00:22.637Z,77.48
2023-01-11T16:03:50.676Z,77.95
2023-01-11T16:07:02.237Z,77.86
2023-01-11T16:10:39.216Z,78.27
2023-01-11T16:14:12.075Z,78.48
2023-01-11T16:17:19.238Z,78.38
2023-01-11T16:20:29.184Z,78.37
2023-01-11T16:23:32.556Z,78.84
2023-01-11T16:26:41.241Z,78.55
2023-01-11T16:29:50.125Z,78.61
2023-01-11T16:32:52.504Z,79.44
2023-01-11T16:36:03.749Z,79.32
2023-01-11T16:39:13.458Z,79.57
2023-01-11T16:42:15.900Z,80.03
2023-01-11T16:45:38.759Z,79.53
2023-01-11T16:48:41.129Z,79.68
2023-01-11T16:51:43.576Z,79.69
2023-01-11T16:54:48.926Z,79.58
2023-01-11T16:57:58.518Z,79.64
2023-01-11T17:01:07.966Z,79.82
2023-01-11T17:04:36.389Z,80.21
2023-01-11T17:07:38.657Z,80.60
2023-01-11T17:10:40.965Z,80.39
2023-01-11T17:13:53.405Z,80.26
2023-01-11T17:17:02.375Z,80.32
2023-01-11T17:20:15.799Z,80.37
2023-01-11T17:23:21.657Z,80.61
2023-01-11T17:26:37.094Z,80.96
2023-01-11T17:29:40.773Z,80.75
2023-01-11T17:32:46.089Z,80.73
2023-01-11T17:35:48.425Z,80.34
2023-01-11T17:38:50.896Z,80.76
2023-01-11T17:42:12.302Z,80.22
2023-01-11T17:45:25.878Z,80.57
2023-01-11T17:48:29.839Z,80.07
2023-01-11T17:51:35.010Z,80.51
2023-01-11T17:54:37.443Z,81.30
2023-01-11T17:57:41.410Z,82.49
2023-01-11T18:00:47.077Z,82.58
2023-01-11T18:03:56.983Z,82.82
2023-01-11T18:07:16.162Z,83.01
2023-01-11T18:10:22.391Z,83.53
2023-01-11T18:13:36.953Z,84.83
2023-01-11T18:16:59.597Z,84.66
2023-01-11T18:20:23.735Z,84.87
2023-01-11T18:23:26.980Z,86.10
2023-01-11T18:26:31.925Z,85.21
2023-01-11T18:29:36.986Z,85.88
2023-01-11T18:32:44.225Z,86.75
2023-01-11T18:35:49.669Z,86.80
2023-01-11T18:38:52.382Z,86.85
2023-01-11T18:42:07.353Z,87.20
2023-01-11T18:45:13.027Z,86.79
2023-01-11T18:48:15.874Z,86.43
2023-01-11T18:51:29.136Z,86.54
2023-01-11T18:54:31.539Z,87.11
2023-01-11T18:57:34.018Z,87.18
2023-01-11T19:00:37.561Z,86.72
2023-01-11T19:03:46.218Z,86.97
2023-01-11T19:06:48.640Z,86.96
2023-01-11T19:09:51.056Z,88.03
2023-01-11T19:12:53.915Z,87.91
2023-01-11T19:15:56.720Z,88.28
2023-01-11T19:18:59.133Z,88.16
2023-01-11T19:22:01.390Z,87.81
2023-01-11T19:25:04.896Z,87.19
2023-01-11T19:28:07.647Z,87.35
2023-01-11T19:31:13.378Z,88.10
2023-01-11T19:34:15.902Z,89.00
2023-01-11T19:37:19.573Z,88.94
2023-01-11T19:40:21.891Z,88.31
2023-01-11T19:43:24.388Z,89.04
2023-01-11T19:46:32.021Z,88.90
2023-01-11T19:49:34.653Z,89.14
2023-01-11T19:52:36.889Z,88.08
2023-01-11T19:55:39.481Z,87.73
2023-01-11T19:58:41.803Z,88.15
2023-01-11T20:01:45.377Z,89.12
2023-01-11T20:04:48.000Z,89.53
2023-01-11T20:07:50.492Z,89.47
2023-01-11T20:10:53.874Z,89.40
2023-01-11T20:13:56.205Z,89.04
2023-01-11T20:16:58.463Z,89.05
2023-01-11T20:20:00.671Z,89.02
2023-01-11T20:23:03.016Z,88.95
2023-01-11T20:26:15.071Z,89.32
2023-01-11T20:29:17.781Z,88.90
2023-01-11T20:32:39.607Z,89.06
2023-01-11T20:35:42.578Z,88.50
2023-01-11T20:38:45.570Z,88.40
2023-01-11T20:41:47.917Z,88.54
2023-01-11T20:44:50.166Z,89.70
2023-01-11T20:47:52.469Z,89.54
2023-01-11T20:50:54.775Z,90.11
2023-01-11T20:53:57.003Z,90.89
2023-01-11T20:57:03.212Z,90.77
2023-01-11T21:03:26.354Z,90.90
2023-01-11T21:06:30.846Z,91.28
2023-01-11T21:09:33.186Z,90.27
2023-01-11T21:12:35.560Z,90.44
2023-01-11T21:15:38.128Z,89.67
2023-01-11T21:18:43.665Z,90.32
2023-01-11T21:21:47.042Z,90.77
2023-01-11T21:24:50.368Z,90.68
2023-01-11T21:27:52.716Z,90.54
2023-01-11T21:31:01.716Z,90.13
2023-01-11T21:34:04.636Z,90.08
2023-01-11T21:37:07.269Z,90.47
2023-01-11T21:40:10.036Z,90.46
2023-01-11T21:43:14.781Z,90.61
2023-01-11T21:46:18.181Z,90.32
2023-01-11T21:49:22.497Z,90.60
2023-01-11T21:52:24.785Z,90.96
2023-01-11T21:55:27.203Z,90.81
2023-01-11T21:58:29.514Z,90.60
2023-01-11T22:01:31.810Z,90.81
2023-01-11T22:04:35.360Z,90.31
2023-01-11T22:07:40.261Z,90.17
2023-01-11T22:10:45.652Z,90.63
2023-01-11T22:13:47.904Z,90.72
2023-01-11T22:16:50.562Z,90.77
2023-01-11T22:19:53.506Z,90.96
2023-01-11T22:22:55.767Z,90.97
2023-01-11T22:26:03.161Z,90.28
2023-01-11T22:29:14.854Z,91.69
2023-01-11T22:32:18.021Z,91.78
2023-01-11T22:35:20.287Z,91.10
2023-01-11T22:38:22.607Z,91.06
2023-01-11T22:41:26.078Z,90.84
2023-01-11T22:44:28.438Z,90.89
2023-01-11T22:47:31.180Z,91.82
2023-01-11T22:50:33.445Z,92.35
2023-01-11T22:53:43.382Z,92.70
2023-01-11T22:56:45.759Z,92.34
2023-01-11T22:59:48.126Z,92.52
2023-01-11T23:02:50.422Z,92.29
2023-01-11T23:05:52.648Z,92.30
2023-01-11T23:08:55.351Z,92.62
2023-01-11T23:12:16.277Z,92.80
2023-01-11T23:15:18.482Z,92.93
2023-01-11T23:18:21.279Z,92.54
2023-01-11T23:21:23.808Z,92.37
2023-01-11T23:24:26.088Z,91.67
2023-01-11T23:27:28.424Z,91.86
2023-01-11T23:30:30.891Z,91.55
2023-01-11T23:33:33.329Z,90.87
2023-01-11T23:36:41.055Z,90.90
2023-01-11T23:39:43.438Z,91.19
2023-01-11T23:42:45.870Z,91.78
2023-01-11T23:45:48.168Z,92.39
2023-01-11T23:48:50.961Z,92.67
2023-01-11T23:51:54.819Z,92.34
2023-01-11T23:54:57.371Z,92.53
2023-01-11T23:58:09.606Z,92.29
